Flight Track Log - Related Links

Times and Time Zones

All times are in EDT time to prevent confusion due to time zone crossing. See the DAL3741 flight status page for this flight to view local times or setup timezone preferences in your user account.

Time Position Orientation Groundspeed Altitude Reporting Facility
EDT Latitude Longitude Course Direction KTS MPH feet Rate Location/Type
Fri 03:33:16 PM 44.9333 -93.2333 69° East 185 213 2,700  Level Minneapolis TRACON
Fri 03:33:51 PM 44.9522 -93.2222 23° Northeast 196 226 3,800 2,063 Climbing Minneapolis Center
Fri 03:34:52 PM 45.0158 -93.1989 15° North 239 275 6,000 2,613 Climbing Minneapolis Center
Fri 03:35:00 PM 45.0223 -92.6650 66° East  Level FlightAware Approximate
Fri 03:35:55 PM 45.0561 -93.0767 65° Northeast 286 329 9,200  Level Minneapolis Center
Fri 03:36:00 PM 45.0784 -92.4827 66° East  Level FlightAware Approximate
Fri 03:36:57 PM 45.0933 -92.9603 66° East 327 376 11,000  Level Minneapolis Center
Fri 03:37:00 PM 45.1232 -92.2965 69° East  Level FlightAware Approximate
Fri 03:37:58 PM 45.1350 -92.8292 66° East 363 418 13,200  Level Minneapolis Center
Fri 03:38:00 PM 45.1543 -92.1797 69° East  Level FlightAware Approximate
Fri 03:39:00 PM 45.1778 -92.6928 66° East 378 435 15,400  Level Minneapolis Center
Fri 03:40:02 PM 45.2217 -92.5517 66° East 392 451 17,000 774 Climbing Minneapolis Center
Fri 03:41:04 PM 45.2481 -92.3717 78° East 398 458 17,000  Level Minneapolis Center
Fri 03:42:06 PM 45.2242 -92.2192 102° East 398 458 17,000  Level Minneapolis Center
Fri 03:43:08 PM 45.1986 -92.0675 103° East 397 457 17,000  Level Minneapolis Center
Fri 03:44:10 PM 45.1739 -91.9178 103° East 394 453 17,000  Level Minneapolis Center
Fri 03:45:24 PM 45.1475 -91.7681 104° East 392 451 17,000  Level Minneapolis Center
Fri 03:46:26 PM 45.1111 -91.5528 103° East 410 472 17,000  Level Minneapolis Center
Fri 03:47:28 PM 45.0858 -91.4044 104° East 406 467 17,000  Level Minneapolis Center
Fri 03:48:30 PM 45.0597 -91.2436 103° East 403 464 17,000  Level Minneapolis Center
Fri 03:49:32 PM 45.0306 -91.0833 104° East 402 463 17,000  Level Minneapolis Center
Fri 03:50:34 PM 45.0033 -90.9244 104° East 399 459 17,000 -629 Level Minneapolis Center
Fri 03:51:36 PM 44.9753 -90.7644 104° East 402 463 15,700 -1,597 Descending Minneapolis Center
Fri 03:52:38 PM 44.9497 -90.6186 104° East 398 458 13,700 -1,951 Descending Minneapolis Center
Fri 03:53:39 PM 44.9244 -90.4708 104° East 373 429 11,700 -1,561 Descending Minneapolis Center
Fri 03:54:41 PM 44.9000 -90.3347 104° East 346 398 10,500 -1,210 Descending Minneapolis Center
Fri 03:55:43 PM 44.8772 -90.2108 105° East 318 366 9,200 -1,403 Descending Minneapolis Center
Fri 03:56:45 PM 44.8567 -90.0950 104° East 296 341 7,600 -1,403 Descending Minneapolis Center
Fri 03:57:47 PM 44.8356 -89.9789 104° East 293 337 6,300 -1,210 Descending Minneapolis Center
Fri 03:58:49 PM 44.8183 -89.8783 104° East 277 319 5,100 -1,210 Descending Minneapolis Center
Fri 03:59:51 PM 44.8283 -89.7694 83° East 266 306 3,800 -1,065 Descending Minneapolis Center
Fri 04:00:53 PM 44.8344 -89.6667 85° East 256 295 2,900 -871 Descending Minneapolis Center

Login

Don't have an account? Register now (free) for customized features, flight alerts, and more!